MAPA DE AEROPUERTO

INFORMACIÓN METAR y TAF

METAR FOR EBBR
ADDS - METARS form results

(0338 UTC 26 February 2021)
Data provider http://aviationweather.gov/metar/data/
 
METAR text: EBBR 260320Z 01003KT CAVOK 07/05 Q1032 TEMPO 4000 RADZ BKN012
Conditions at: EBBR (BRUSSELS NATIONA, BE) observed 0320 UTC 26 February 2021
Temperature: 7.0°C (45°F)
Dewpoint: 5.0°C (41°F) [RH = 87%]
Pressure (altimeter): 30.47 inches Hg (1032.0 mb)
Winds: from the N (10 degrees) at 3 MPH (3 knots; 1.5 m/s)
Visibility: 6 or more miles (10+ km)
Ceiling: ceiling and visibility are OK
Clouds: unknown
Weather: no significant weather observed at this time

METAR text: EBBR 260250Z 07003KT 9999 -RA BKN046 07/05 Q1032 TEMPO 4000 RADZ BKN012
Conditions at: EBBR (BRUSSELS NATIONA, BE) observed 0250 UTC 26 February 2021
Temperature: 7.0°C (45°F)
Dewpoint: 5.0°C (41°F) [RH = 87%]
Pressure (altimeter): 30.47 inches Hg (1032.0 mb)
Winds: from the ENE (70 degrees) at 3 MPH (3 knots; 1.5 m/s)
Visibility: 6 or more miles (10+ km)
Ceiling: 4600 feet AGL
Clouds: broken clouds at 4600 feet AGL
Weather: -RA  (light rain)

Forecast for: EBBR (BRUSSELS NATIONA, BE)
Text: TAF EBBR 252306Z 2600/2706 35006KT 9999 SCT020 BKN040
Forecast period: 0000 to 2300 UTC 26 February 2021
Forecast type: FROM: standard forecast or significant change
Winds: from the N (350 degrees) at 7 MPH (6 knots; 3.1 m/s)
Visibility: 6 or more miles (10+ km)
Ceiling: 4000 feet AGL
Clouds: scattered clouds at 2000 feet AGL
broken clouds at 4000 feet AGL
Weather: no significant weather forecast for this period
Text: TEMPO 2600/2606 4000 RA SHRA SCT007 BKN013TCU
Forecast period: 0000 to 0600 UTC 26 February 2021
Forecast type: TEMPORARY: The following changes expected for less than half the time period
Visibility: 2.49 miles (4.01 km)
Ceiling: 1300 feet AGL
Clouds: scattered clouds at 700 feet AGL
broken clouds at 1300 feet AGL
Weather: RA SHRA  (moderate rain, rain showers)
Text: PROB40
Forecast period: 0600 to 0900 UTC 26 February 2021
Forecast type: TEMPORARY: The following changes expected for less than half the time period
Visibility: missing
Ceiling: 500 feet AGL
Clouds: broken clouds at 500 feet AGL
Weather: no significant weather forecast for this period
Text: TEMPO 2606/2609 BKN005
Forecast period: 2300 UTC 26 February 2021 to 0600 UTC 27 February 2021
Forecast type: BECOMING: Conditions expected to become as follows by 0200 UTC 27 February 2021
Winds: from the N (350 degrees) at 7 MPH (6 knots; 3.1 m/s)
Visibility: 1.24 miles (2.00 km)
Ceiling: 4000 feet AGL
Clouds: scattered clouds at 2000 feet AGL
broken clouds at 4000 feet AGL
Weather: BR  (mist)
Text: BECMG 2623/2702 2000 BR
Forecast period: 0400 to 0600 UTC 27 February 2021
Forecast type: TEMPORARY: The following changes expected for less than half the time period
Visibility: 0.25 miles (0.40 km)
Ceiling: indefinite ceiling with vertical visibility of 100 feet AGL
Clouds: obscured sky
Weather: FG  (fog)